FLI470 BIRK-EKVG
Flight info
| Callsign | FLI470 |
|---|---|
| Flight time | 1h 18m |
| Altitude | 37000 |
| Route | METIL Y194 INACO MAGNI |
| Aircraft | A319/M-SDE3FGHIRWY/LB1 |
Departure
| Time | 2026-04-21 16:33 |
|---|---|
| Airport | Reykjavík Domestic Airport (BIRK) |
Arrival
| Time | 2026-04-21 17:52 |
|---|---|
| Airport | Vágar Airport (EKVG) |
| Time | Latitude | Longitude | Altitude | Speed | Heading |
|---|---|---|---|---|---|
| 2026-04-21 16:14 | 64.13165 | -21.94570 | 11 ft | 0 kts | 83° |
| 2026-04-21 16:24 | 64.13163 | -21.94563 | 11 ft | 2 kts | 134° |
| 2026-04-21 16:24 | 64.13129 | -21.94469 | 12 ft | 9 kts | 103° |
| 2026-04-21 16:24 | 64.13133 | -21.94303 | 15 ft | 11 kts | 83° |
| 2026-04-21 16:25 | 64.13141 | -21.94139 | 18 ft | 9 kts | 83° |
| 2026-04-21 16:25 | 64.13145 | -21.94059 | 20 ft | 0 kts | 83° |
| 2026-04-21 16:29 | 64.13147 | -21.94028 | 21 ft | 6 kts | 83° |
| 2026-04-21 16:29 | 64.13152 | -21.93915 | 23 ft | 8 kts | 84° |
| 2026-04-21 16:30 | 64.13100 | -21.93797 | 24 ft | 13 kts | 168° |
| 2026-04-21 16:30 | 64.12972 | -21.93768 | 19 ft | 22 kts | 175° |
| 2026-04-21 16:30 | 64.12805 | -21.93736 | 13 ft | 21 kts | 175° |
| 2026-04-21 16:30 | 64.12658 | -21.93708 | 10 ft | 22 kts | 175° |
| 2026-04-21 16:31 | 64.12516 | -21.93681 | 5 ft | 20 kts | 175° |
| 2026-04-21 16:31 | 64.12384 | -21.93657 | 3 ft | 19 kts | 175° |
| 2026-04-21 16:31 | 64.12253 | -21.93633 | 1 ft | 17 kts | 175° |
| 2026-04-21 16:31 | 64.12161 | -21.93607 | 1 ft | 10 kts | 156° |
| 2026-04-21 16:32 | 64.12115 | -21.93596 | 1 ft | 6 kts | 275° |
| 2026-04-21 16:32 | 64.12165 | -21.93616 | 1 ft | 8 kts | 356° |
| 2026-04-21 16:32 | 64.12184 | -21.93620 | 1 ft | 0 kts | 355° |
| 2026-04-21 16:33 | 64.12312 | -21.93644 | 2 ft | 54 kts | 355° |
| 2026-04-21 16:33 | 64.12936 | -21.93763 | 18 ft | 122 kts | 355° |
| 2026-04-21 16:33 | 64.13911 | -21.93984 | 297 ft | 151 kts | 352° |
| 2026-04-21 16:33 | 64.14909 | -21.94224 | 1055 ft | 145 kts | 353° |
| 2026-04-21 16:34 | 64.15868 | -21.94414 | 1826 ft | 141 kts | 356° |
| 2026-04-21 16:34 | 64.16824 | -21.93749 | 2323 ft | 157 kts | 37° |
| 2026-04-21 16:34 | 64.17405 | -21.91534 | 2756 ft | 177 kts | 77° |
| 2026-04-21 16:34 | 64.17209 | -21.88672 | 3182 ft | 196 kts | 120° |
| 2026-04-21 16:35 | 64.16121 | -21.86759 | 3627 ft | 210 kts | 167° |
| 2026-04-21 16:35 | 64.14670 | -21.87130 | 4130 ft | 218 kts | 209° |
| 2026-04-21 16:35 | 64.13380 | -21.89013 | 4617 ft | 234 kts | 211° |
| 2026-04-21 16:35 | 64.11754 | -21.89991 | 5107 ft | 256 kts | 176° |
| 2026-04-21 16:36 | 64.10079 | -21.88499 | 5730 ft | 270 kts | 139° |
| 2026-04-21 16:36 | 64.09032 | -21.85002 | 6525 ft | 274 kts | 110° |
| 2026-04-21 16:36 | 64.08349 | -21.80943 | 7305 ft | 281 kts | 115° |
| 2026-04-21 16:36 | 64.07376 | -21.77061 | 8133 ft | 285 kts | 124° |
| 2026-04-21 16:37 | 64.06174 | -21.73477 | 8968 ft | 288 kts | 130° |
| 2026-04-21 16:37 | 64.04841 | -21.70094 | 9747 ft | 291 kts | 134° |
| 2026-04-21 16:37 | 64.03436 | -21.66799 | 10430 ft | 296 kts | 135° |
| 2026-04-21 16:37 | 64.01981 | -21.63501 | 11236 ft | 299 kts | 135° |
| 2026-04-21 16:38 | 64.00467 | -21.60100 | 11680 ft | 315 kts | 136° |
| 2026-04-21 16:38 | 63.98866 | -21.56487 | 12048 ft | 333 kts | 133° |
| 2026-04-21 16:38 | 63.97538 | -21.52056 | 12322 ft | 352 kts | 112° |
| 2026-04-21 16:38 | 63.96981 | -21.46587 | 12704 ft | 365 kts | 93° |
| 2026-04-21 16:39 | 63.96896 | -21.40843 | 13351 ft | 369 kts | 91° |
| 2026-04-21 16:39 | 63.96817 | -21.34995 | 14061 ft | 372 kts | 91° |
| 2026-04-21 16:39 | 63.96727 | -21.29138 | 14697 ft | 376 kts | 92° |
| 2026-04-21 16:39 | 63.96624 | -21.23195 | 15320 ft | 379 kts | 92° |
| 2026-04-21 16:40 | 63.96513 | -21.17191 | 15954 ft | 382 kts | 92° |
| 2026-04-21 16:40 | 63.96397 | -21.11209 | 16586 ft | 385 kts | 92° |
| 2026-04-21 16:40 | 63.96273 | -21.05067 | 17229 ft | 388 kts | 92° |
| 2026-04-21 16:40 | 63.96144 | -20.98929 | 17838 ft | 390 kts | 92° |
| 2026-04-21 16:41 | 63.96058 | -20.94850 | 18220 ft | 392 kts | 92° |
| 2026-04-21 16:41 | 63.95880 | -20.86664 | 18993 ft | 394 kts | 92° |
| 2026-04-21 16:41 | 63.95742 | -20.80414 | 19552 ft | 397 kts | 92° |
| 2026-04-21 16:41 | 63.95602 | -20.74197 | 20077 ft | 399 kts | 92° |
| 2026-04-21 16:42 | 63.95457 | -20.67900 | 20605 ft | 402 kts | 91° |
| 2026-04-21 16:42 | 63.95307 | -20.61538 | 21123 ft | 404 kts | 91° |
| 2026-04-21 16:42 | 63.95157 | -20.55196 | 21623 ft | 407 kts | 91° |
| 2026-04-21 16:42 | 63.94999 | -20.48730 | 22122 ft | 410 kts | 91° |
| 2026-04-21 16:43 | 63.94839 | -20.42317 | 22608 ft | 412 kts | 91° |
| 2026-04-21 16:43 | 63.94674 | -20.35784 | 23084 ft | 414 kts | 91° |
| 2026-04-21 16:43 | 63.94508 | -20.29305 | 23551 ft | 416 kts | 92° |
| 2026-04-21 16:43 | 63.94333 | -20.22706 | 24013 ft | 418 kts | 92° |
| 2026-04-21 16:44 | 63.94157 | -20.16142 | 24439 ft | 421 kts | 92° |
| 2026-04-21 16:44 | 63.93976 | -20.09539 | 24867 ft | 422 kts | 92° |
| 2026-04-21 16:44 | 63.93791 | -20.02893 | 25285 ft | 424 kts | 92° |
| 2026-04-21 16:44 | 63.93602 | -19.96181 | 25688 ft | 427 kts | 91° |
| 2026-04-21 16:45 | 63.93409 | -19.89490 | 26079 ft | 429 kts | 91° |
| 2026-04-21 16:45 | 63.93212 | -19.82746 | 26469 ft | 430 kts | 91° |
| 2026-04-21 16:45 | 63.93012 | -19.75982 | 26851 ft | 432 kts | 91° |
| 2026-04-21 16:45 | 63.92809 | -19.69215 | 27221 ft | 434 kts | 91° |
| 2026-04-21 16:46 | 63.92599 | -19.62332 | 27598 ft | 435 kts | 91° |
| 2026-04-21 16:46 | 63.92387 | -19.55536 | 27948 ft | 437 kts | 91° |
| 2026-04-21 16:46 | 63.92170 | -19.48668 | 28302 ft | 438 kts | 91° |
| 2026-04-21 16:46 | 63.91951 | -19.41836 | 28639 ft | 439 kts | 91° |
| 2026-04-21 16:47 | 63.91727 | -19.34945 | 28991 ft | 440 kts | 92° |
| 2026-04-21 16:47 | 63.91497 | -19.27966 | 29430 ft | 438 kts | 92° |
| 2026-04-21 16:47 | 63.91269 | -19.21129 | 29884 ft | 436 kts | 92° |
| 2026-04-21 16:47 | 63.91040 | -19.14385 | 30323 ft | 434 kts | 92° |
| 2026-04-21 16:48 | 63.90807 | -19.07601 | 30758 ft | 433 kts | 92° |
| 2026-04-21 16:48 | 63.90570 | -19.00823 | 31176 ft | 430 kts | 92° |
| 2026-04-21 16:48 | 63.90334 | -18.94120 | 31599 ft | 428 kts | 92° |
| 2026-04-21 16:48 | 63.90091 | -18.87347 | 32018 ft | 426 kts | 92° |
| 2026-04-21 16:49 | 63.89848 | -18.80720 | 32397 ft | 424 kts | 92° |
| 2026-04-21 16:49 | 63.89589 | -18.74078 | 32760 ft | 423 kts | 92° |
| 2026-04-21 16:49 | 63.89332 | -18.67501 | 33112 ft | 421 kts | 92° |
| 2026-04-21 16:49 | 63.89077 | -18.60964 | 33448 ft | 419 kts | 92° |
| 2026-04-21 16:50 | 63.88820 | -18.54356 | 33778 ft | 418 kts | 92° |
| 2026-04-21 16:50 | 63.88567 | -18.47856 | 34101 ft | 416 kts | 92° |
| 2026-04-21 16:50 | 63.88313 | -18.41407 | 34414 ft | 414 kts | 92° |
| 2026-04-21 16:50 | 63.88058 | -18.34963 | 34726 ft | 412 kts | 93° |
| 2026-04-21 16:51 | 63.87796 | -18.28438 | 34991 ft | 410 kts | 93° |
| 2026-04-21 16:51 | 63.87539 | -18.22038 | 35212 ft | 410 kts | 93° |
| 2026-04-21 16:51 | 63.87279 | -18.15638 | 35437 ft | 409 kts | 93° |
| 2026-04-21 16:51 | 63.87018 | -18.09309 | 35665 ft | 408 kts | 93° |
| 2026-04-21 16:52 | 63.86751 | -18.02898 | 35876 ft | 407 kts | 93° |
| 2026-04-21 16:52 | 63.86487 | -17.96568 | 36044 ft | 408 kts | 93° |
| 2026-04-21 16:52 | 63.86306 | -17.92270 | 36146 ft | 408 kts | 92° |
| 2026-04-21 16:52 | 63.85944 | -17.83789 | 36369 ft | 408 kts | 92° |
| 2026-04-21 16:53 | 63.85670 | -17.77405 | 36560 ft | 409 kts | 92° |
| 2026-04-21 16:53 | 63.85390 | -17.70997 | 36711 ft | 409 kts | 92° |
| 2026-04-21 16:53 | 63.85108 | -17.64645 | 36873 ft | 410 kts | 92° |
| 2026-04-21 16:53 | 63.84819 | -17.58212 | 37005 ft | 411 kts | 93° |
| 2026-04-21 16:54 | 63.84528 | -17.51860 | 37138 ft | 411 kts | 92° |
| 2026-04-21 16:54 | 63.84229 | -17.45429 | 37250 ft | 412 kts | 92° |
| 2026-04-21 16:54 | 63.83928 | -17.38967 | 37363 ft | 412 kts | 92° |
| 2026-04-21 16:55 | 63.83322 | -17.26079 | 37540 ft | 414 kts | 93° |
| 2026-04-21 16:55 | 63.82709 | -17.13179 | 37592 ft | 415 kts | 93° |
| 2026-04-21 16:56 | 63.82086 | -17.00218 | 37595 ft | 415 kts | 93° |
| 2026-04-21 16:56 | 63.81452 | -16.87371 | 37598 ft | 414 kts | 93° |
| 2026-04-21 16:57 | 63.80786 | -16.74499 | 37585 ft | 414 kts | 95° |
| 2026-04-21 16:57 | 63.79678 | -16.61684 | 37585 ft | 417 kts | 100° |
| 2026-04-21 16:58 | 63.78003 | -16.49222 | 37599 ft | 419 kts | 104° |
| 2026-04-21 16:58 | 63.76137 | -16.36797 | 37597 ft | 419 kts | 104° |
| 2026-04-21 16:59 | 63.74265 | -16.24393 | 37621 ft | 419 kts | 105° |
| 2026-04-21 16:59 | 63.72385 | -16.12024 | 37598 ft | 419 kts | 105° |
| 2026-04-21 17:00 | 63.70487 | -15.99647 | 37587 ft | 420 kts | 105° |
| 2026-04-21 17:00 | 63.68888 | -15.89284 | 37599 ft | 421 kts | 105° |
| 2026-04-21 17:01 | 63.66645 | -15.74854 | 37601 ft | 421 kts | 105° |
| 2026-04-21 17:01 | 63.64718 | -15.62556 | 37607 ft | 420 kts | 105° |
| 2026-04-21 17:02 | 63.62779 | -15.50264 | 37618 ft | 420 kts | 105° |
| 2026-04-21 17:02 | 63.60812 | -15.37880 | 37619 ft | 420 kts | 105° |
| 2026-04-21 17:03 | 63.58858 | -15.25647 | 37617 ft | 420 kts | 106° |
| 2026-04-21 17:03 | 63.56884 | -15.13370 | 37616 ft | 420 kts | 106° |
| 2026-04-21 17:04 | 63.54886 | -15.01027 | 37617 ft | 420 kts | 106° |
| 2026-04-21 17:04 | 63.52892 | -14.88804 | 37626 ft | 420 kts | 106° |
| 2026-04-21 17:05 | 63.50879 | -14.76538 | 37626 ft | 421 kts | 106° |
| 2026-04-21 17:05 | 63.48862 | -14.64340 | 37625 ft | 420 kts | 106° |
| 2026-04-21 17:06 | 63.46839 | -14.52180 | 37633 ft | 421 kts | 106° |
| 2026-04-21 17:06 | 63.44793 | -14.39962 | 37636 ft | 421 kts | 106° |
| 2026-04-21 17:07 | 63.43077 | -14.29769 | 37638 ft | 421 kts | 107° |
| 2026-04-21 17:07 | 63.40683 | -14.15628 | 37641 ft | 422 kts | 107° |
| 2026-04-21 17:08 | 63.38600 | -14.03413 | 37647 ft | 422 kts | 107° |
| 2026-04-21 17:08 | 63.36517 | -13.91292 | 37646 ft | 422 kts | 107° |
| 2026-04-21 17:09 | 63.33358 | -13.73052 | 37645 ft | 422 kts | 107° |
| 2026-04-21 17:09 | 63.31249 | -13.60969 | 37643 ft | 422 kts | 107° |
| 2026-04-21 17:10 | 63.29128 | -13.48901 | 37648 ft | 422 kts | 107° |
| 2026-04-21 17:10 | 63.26994 | -13.36822 | 37657 ft | 422 kts | 107° |
| 2026-04-21 17:11 | 63.24847 | -13.24750 | 37648 ft | 422 kts | 108° |
| 2026-04-21 17:11 | 63.22686 | -13.12663 | 37646 ft | 422 kts | 108° |
| 2026-04-21 17:12 | 63.20526 | -13.00658 | 37657 ft | 423 kts | 108° |
| 2026-04-21 17:12 | 63.18338 | -12.88587 | 37651 ft | 423 kts | 108° |
| 2026-04-21 17:13 | 63.16157 | -12.76631 | 37655 ft | 423 kts | 108° |
| 2026-04-21 17:13 | 63.13949 | -12.64593 | 37649 ft | 423 kts | 108° |
| 2026-04-21 17:14 | 63.11743 | -12.52648 | 37657 ft | 423 kts | 108° |
| 2026-04-21 17:14 | 63.09517 | -12.40667 | 37660 ft | 423 kts | 108° |
| 2026-04-21 17:15 | 63.07280 | -12.28688 | 37659 ft | 425 kts | 109° |
| 2026-04-21 17:15 | 63.05029 | -12.16694 | 37660 ft | 424 kts | 109° |
| 2026-04-21 17:16 | 63.02786 | -12.04820 | 37659 ft | 424 kts | 109° |
| 2026-04-21 17:16 | 63.00516 | -11.92880 | 37666 ft | 424 kts | 109° |
| 2026-04-21 17:17 | 62.98230 | -11.80939 | 37663 ft | 424 kts | 109° |
| 2026-04-21 17:17 | 62.95949 | -11.69102 | 37665 ft | 425 kts | 109° |
| 2026-04-21 17:18 | 62.93641 | -11.57185 | 37664 ft | 425 kts | 109° |
| 2026-04-21 17:18 | 62.91332 | -11.45334 | 37657 ft | 425 kts | 109° |
| 2026-04-21 17:19 | 62.89005 | -11.33495 | 37653 ft | 425 kts | 110° |
| 2026-04-21 17:19 | 62.86653 | -11.21687 | 37657 ft | 425 kts | 110° |
| 2026-04-21 17:20 | 62.84281 | -11.09792 | 37662 ft | 425 kts | 110° |
| 2026-04-21 17:20 | 62.81930 | -10.98027 | 37664 ft | 425 kts | 110° |
| 2026-04-21 17:21 | 62.79566 | -10.86248 | 37664 ft | 425 kts | 110° |
| 2026-04-21 17:21 | 62.77204 | -10.74541 | 37665 ft | 426 kts | 110° |
| 2026-04-21 17:22 | 62.74809 | -10.62743 | 37662 ft | 427 kts | 110° |
| 2026-04-21 17:22 | 62.72407 | -10.50972 | 37664 ft | 427 kts | 110° |
| 2026-04-21 17:23 | 62.69989 | -10.39195 | 37668 ft | 426 kts | 110° |
| 2026-04-21 17:23 | 62.67567 | -10.27454 | 37668 ft | 427 kts | 111° |
| 2026-04-21 17:24 | 62.65152 | -10.15804 | 37662 ft | 427 kts | 111° |
| 2026-04-21 17:24 | 62.62711 | -10.04094 | 37662 ft | 428 kts | 111° |
| 2026-04-21 17:25 | 62.60241 | -9.92332 | 37582 ft | 424 kts | 111° |
| 2026-04-21 17:25 | 62.59036 | -9.86621 | 37208 ft | 420 kts | 111° |
| 2026-04-21 17:25 | 62.57822 | -9.80882 | 36616 ft | 420 kts | 111° |
| 2026-04-21 17:26 | 62.56611 | -9.75166 | 36131 ft | 418 kts | 111° |
| 2026-04-21 17:26 | 62.55405 | -9.69499 | 35755 ft | 417 kts | 110° |
| 2026-04-21 17:26 | 62.54190 | -9.63796 | 35325 ft | 417 kts | 110° |
| 2026-04-21 17:26 | 62.52983 | -9.58153 | 34816 ft | 418 kts | 110° |
| 2026-04-21 17:27 | 62.51762 | -9.52446 | 34161 ft | 419 kts | 110° |
| 2026-04-21 17:27 | 62.50548 | -9.46789 | 33443 ft | 422 kts | 110° |
| 2026-04-21 17:27 | 62.49303 | -9.40998 | 32674 ft | 425 kts | 110° |
| 2026-04-21 17:27 | 62.48056 | -9.35222 | 31899 ft | 428 kts | 111° |
| 2026-04-21 17:28 | 62.46775 | -9.29298 | 31090 ft | 431 kts | 111° |
| 2026-04-21 17:28 | 62.45495 | -9.23391 | 30201 ft | 434 kts | 111° |
| 2026-04-21 17:28 | 62.44223 | -9.17553 | 29310 ft | 437 kts | 111° |
| 2026-04-21 17:28 | 62.42932 | -9.11642 | 28408 ft | 439 kts | 111° |
| 2026-04-21 17:29 | 62.41634 | -9.05716 | 27484 ft | 440 kts | 111° |
| 2026-04-21 17:29 | 62.40330 | -8.99781 | 26625 ft | 439 kts | 111° |
| 2026-04-21 17:29 | 62.39040 | -8.93930 | 26036 ft | 432 kts | 111° |
| 2026-04-21 17:29 | 62.37762 | -8.88157 | 25416 ft | 427 kts | 111° |
| 2026-04-21 17:30 | 62.36507 | -8.82497 | 24761 ft | 423 kts | 111° |
| 2026-04-21 17:30 | 62.35250 | -8.76832 | 24103 ft | 419 kts | 111° |
| 2026-04-21 17:30 | 62.34002 | -8.71224 | 23449 ft | 415 kts | 111° |
| 2026-04-21 17:30 | 62.32773 | -8.65719 | 22815 ft | 410 kts | 111° |
| 2026-04-21 17:31 | 62.31541 | -8.60215 | 22179 ft | 406 kts | 111° |
| 2026-04-21 17:31 | 62.30328 | -8.54808 | 21542 ft | 403 kts | 111° |
| 2026-04-21 17:31 | 62.29124 | -8.49454 | 20920 ft | 399 kts | 111° |
| 2026-04-21 17:31 | 62.27928 | -8.44147 | 20298 ft | 396 kts | 111° |
| 2026-04-21 17:32 | 62.27140 | -8.40663 | 19893 ft | 393 kts | 111° |
| 2026-04-21 17:32 | 62.25555 | -8.33662 | 19094 ft | 389 kts | 112° |
| 2026-04-21 17:32 | 62.24385 | -8.28500 | 18507 ft | 386 kts | 112° |
| 2026-04-21 17:32 | 62.23216 | -8.23353 | 17935 ft | 382 kts | 112° |
| 2026-04-21 17:33 | 62.22059 | -8.18273 | 17385 ft | 379 kts | 112° |
| 2026-04-21 17:33 | 62.20909 | -8.13241 | 16823 ft | 377 kts | 112° |
| 2026-04-21 17:33 | 62.19764 | -8.08244 | 16264 ft | 374 kts | 112° |
| 2026-04-21 17:33 | 62.18634 | -8.03322 | 15723 ft | 372 kts | 112° |
| 2026-04-21 17:34 | 62.17508 | -7.98429 | 15189 ft | 369 kts | 112° |
| 2026-04-21 17:34 | 62.16366 | -7.93479 | 14623 ft | 367 kts | 112° |
| 2026-04-21 17:34 | 62.15254 | -7.88679 | 14262 ft | 359 kts | 112° |
| 2026-04-21 17:34 | 62.14158 | -7.83970 | 14035 ft | 346 kts | 112° |
| 2026-04-21 17:35 | 62.13120 | -7.79523 | 13634 ft | 326 kts | 112° |
| 2026-04-21 17:35 | 62.12154 | -7.75318 | 13241 ft | 307 kts | 111° |
| 2026-04-21 17:35 | 62.11231 | -7.71432 | 12895 ft | 290 kts | 115° |
| 2026-04-21 17:35 | 62.10207 | -7.67809 | 12444 ft | 279 kts | 119° |
| 2026-04-21 17:36 | 62.09085 | -7.64460 | 11814 ft | 278 kts | 123° |
| 2026-04-21 17:36 | 62.07859 | -7.61351 | 11265 ft | 272 kts | 127° |
| 2026-04-21 17:36 | 62.06628 | -7.58430 | 11003 ft | 260 kts | 127° |
| 2026-04-21 17:36 | 62.05445 | -7.55627 | 10753 ft | 255 kts | 127° |
| 2026-04-21 17:37 | 62.04274 | -7.52844 | 10653 ft | 254 kts | 127° |
| 2026-04-21 17:37 | 62.03091 | -7.50035 | 10632 ft | 255 kts | 127° |
| 2026-04-21 17:37 | 62.02309 | -7.48176 | 10631 ft | 255 kts | 127° |
| 2026-04-21 17:37 | 62.00723 | -7.44425 | 10630 ft | 255 kts | 127° |
| 2026-04-21 17:38 | 61.99556 | -7.41670 | 10484 ft | 251 kts | 128° |
| 2026-04-21 17:38 | 61.98386 | -7.38906 | 10130 ft | 253 kts | 128° |
| 2026-04-21 17:38 | 61.97219 | -7.36158 | 9807 ft | 253 kts | 128° |
| 2026-04-21 17:38 | 61.96045 | -7.33391 | 9507 ft | 252 kts | 129° |
| 2026-04-21 17:39 | 61.94886 | -7.30658 | 9206 ft | 251 kts | 129° |
| 2026-04-21 17:39 | 61.93713 | -7.27894 | 8911 ft | 249 kts | 129° |
| 2026-04-21 17:39 | 61.92554 | -7.25174 | 8642 ft | 247 kts | 129° |
| 2026-04-21 17:39 | 61.91421 | -7.22523 | 8499 ft | 240 kts | 129° |
| 2026-04-21 17:40 | 61.90331 | -7.19974 | 8349 ft | 233 kts | 129° |
| 2026-04-21 17:40 | 61.89249 | -7.17463 | 8200 ft | 225 kts | 129° |
| 2026-04-21 17:40 | 61.88217 | -7.15089 | 8048 ft | 218 kts | 129° |
| 2026-04-21 17:40 | 61.87201 | -7.12746 | 7900 ft | 210 kts | 129° |
| 2026-04-21 17:41 | 61.86245 | -7.10533 | 7748 ft | 203 kts | 129° |
| 2026-04-21 17:41 | 61.85298 | -7.08336 | 7523 ft | 200 kts | 129° |
| 2026-04-21 17:41 | 61.84369 | -7.06169 | 7260 ft | 199 kts | 127° |
| 2026-04-21 17:41 | 61.83561 | -7.03853 | 6997 ft | 196 kts | 117° |
| 2026-04-21 17:42 | 61.82971 | -7.01274 | 6737 ft | 193 kts | 106° |
| 2026-04-21 17:42 | 61.82622 | -6.98599 | 6471 ft | 190 kts | 96° |
| 2026-04-21 17:42 | 61.82500 | -6.95824 | 6196 ft | 189 kts | 86° |
| 2026-04-21 17:42 | 61.82610 | -6.93073 | 5920 ft | 187 kts | 76° |
| 2026-04-21 17:43 | 61.82939 | -6.90423 | 5642 ft | 186 kts | 66° |
| 2026-04-21 17:43 | 61.83467 | -6.87991 | 5381 ft | 184 kts | 57° |
| 2026-04-21 17:43 | 61.84185 | -6.85769 | 5111 ft | 183 kts | 48° |
| 2026-04-21 17:43 | 61.85066 | -6.83843 | 4843 ft | 182 kts | 38° |
| 2026-04-21 17:44 | 61.86078 | -6.82289 | 4590 ft | 180 kts | 29° |
| 2026-04-21 17:44 | 61.87159 | -6.81162 | 4526 ft | 165 kts | 20° |
| 2026-04-21 17:44 | 61.88226 | -6.80450 | 4311 ft | 159 kts | 12° |
| 2026-04-21 17:44 | 61.89312 | -6.80090 | 4046 ft | 157 kts | 4° |
| 2026-04-21 17:45 | 61.90408 | -6.80078 | 3989 ft | 157 kts | 356° |
| 2026-04-21 17:45 | 61.91484 | -6.80398 | 3981 ft | 158 kts | 348° |
| 2026-04-21 17:45 | 61.92535 | -6.81052 | 3980 ft | 158 kts | 340° |
| 2026-04-21 17:45 | 61.93539 | -6.82040 | 3976 ft | 158 kts | 331° |
| 2026-04-21 17:46 | 61.94457 | -6.83323 | 3973 ft | 159 kts | 323° |
| 2026-04-21 17:46 | 61.95260 | -6.84918 | 3971 ft | 160 kts | 313° |
| 2026-04-21 17:46 | 61.95941 | -6.86789 | 3971 ft | 161 kts | 306° |
| 2026-04-21 17:46 | 61.96562 | -6.88785 | 3975 ft | 161 kts | 304° |
| 2026-04-21 17:47 | 61.97155 | -6.90781 | 3971 ft | 162 kts | 302° |
| 2026-04-21 17:47 | 61.97726 | -6.92859 | 3973 ft | 162 kts | 301° |
| 2026-04-21 17:47 | 61.98267 | -6.94948 | 3966 ft | 161 kts | 300° |
| 2026-04-21 17:47 | 61.98772 | -6.96969 | 3802 ft | 153 kts | 300° |
| 2026-04-21 17:48 | 61.99097 | -6.98289 | 3672 ft | 148 kts | 300° |
| 2026-04-21 17:48 | 61.99695 | -7.00733 | 3343 ft | 134 kts | 300° |
| 2026-04-21 17:48 | 62.00122 | -7.02478 | 3138 ft | 133 kts | 300° |
| 2026-04-21 17:48 | 62.00544 | -7.04195 | 2938 ft | 132 kts | 300° |
| 2026-04-21 17:49 | 62.00972 | -7.05936 | 2733 ft | 131 kts | 299° |
| 2026-04-21 17:49 | 62.01394 | -7.07652 | 2531 ft | 131 kts | 299° |
| 2026-04-21 17:49 | 62.01812 | -7.09349 | 2328 ft | 131 kts | 299° |
| 2026-04-21 17:49 | 62.02234 | -7.11060 | 2120 ft | 131 kts | 299° |
| 2026-04-21 17:50 | 62.02659 | -7.12781 | 1907 ft | 131 kts | 299° |
| 2026-04-21 17:50 | 62.03080 | -7.14484 | 1700 ft | 130 kts | 299° |
| 2026-04-21 17:50 | 62.03502 | -7.16193 | 1490 ft | 130 kts | 299° |
| 2026-04-21 17:50 | 62.03921 | -7.17891 | 1284 ft | 130 kts | 300° |
| 2026-04-21 17:51 | 62.04335 | -7.19567 | 1052 ft | 128 kts | 300° |
| 2026-04-21 17:51 | 62.04747 | -7.21253 | 857 ft | 128 kts | 300° |
| 2026-04-21 17:51 | 62.05154 | -7.22914 | 670 ft | 128 kts | 300° |
| 2026-04-21 17:51 | 62.05579 | -7.24593 | 474 ft | 127 kts | 301° |
| 2026-04-21 17:52 | 62.05992 | -7.26258 | 304 ft | 126 kts | 300° |
| 2026-04-21 17:52 | 62.06328 | -7.27605 | 291 ft | 64 kts | 298° |
| 2026-04-21 17:52 | 62.06419 | -7.27972 | 291 ft | 12 kts | 298° |
| 2026-04-21 17:52 | 62.06452 | -7.28100 | 291 ft | 7 kts | 304° |
| 2026-04-21 17:53 | 62.06504 | -7.28126 | 291 ft | 9 kts | 17° |
| 2026-04-21 17:53 | 62.06558 | -7.28079 | 291 ft | 7 kts | 17° |
| 2026-04-21 17:53 | 62.06571 | -7.28074 | 291 ft | 0 kts | 6° |
| 2026-04-21 17:53 | 62.06572 | -7.28074 | 291 ft | 1 kts | 6° |
| 2026-04-21 17:54 | 62.06602 | -7.28072 | 291 ft | 5 kts | 1° |
| 2026-04-21 17:54 | 62.06633 | -7.28066 | 291 ft | 3 kts | 24° |
| 2026-04-21 17:54 | 62.06644 | -7.28012 | 291 ft | 5 kts | 88° |
| 2026-04-21 17:54 | 62.06656 | -7.27957 | 291 ft | 2 kts | 38° |
| 2026-04-21 17:55 | 62.06678 | -7.27929 | 291 ft | 2 kts | 29° |
| 2026-04-21 17:55 | 62.06683 | -7.27923 | 291 ft | 0 kts | 29° |